createdAt,value
2018-06-15T00:02:07.321Z,17.80
2018-06-15T00:05:05.174Z,17.80
2018-06-15T00:08:02.309Z,17.80
2018-06-15T00:11:00.120Z,17.80
2018-06-15T00:13:57.309Z,17.90
2018-06-15T00:16:54.860Z,17.90
2018-06-15T00:19:52.264Z,17.90
2018-06-15T00:22:49.522Z,17.90
2018-06-15T00:25:48.300Z,17.90
2018-06-15T00:28:46.427Z,18.00
2018-06-15T00:31:44.454Z,17.90
2018-06-15T00:34:42.354Z,17.90
2018-06-15T00:37:41.194Z,18.00
2018-06-15T00:40:39.192Z,18.00
2018-06-15T00:43:37.046Z,18.00
2018-06-15T00:46:34.764Z,18.00
2018-06-15T00:49:32.314Z,18.00
2018-06-15T00:52:30.321Z,18.00
2018-06-15T01:14:53.835Z,18.00
2018-06-15T01:17:51.099Z,18.00
2018-06-15T01:20:48.340Z,18.20
2018-06-15T01:23:46.568Z,18.20
2018-06-15T01:26:44.408Z,18.30
2018-06-15T01:29:42.532Z,18.30
2018-06-15T01:32:40.416Z,18.30
2018-06-15T01:35:38.288Z,18.30
2018-06-15T01:38:36.414Z,18.30
2018-06-15T01:41:33.771Z,18.30
2018-06-15T01:44:31.067Z,18.30
2018-06-15T01:47:28.464Z,18.30
2018-06-15T01:50:26.357Z,18.30
2018-06-15T01:53:24.142Z,18.30
2018-06-15T01:56:22.003Z,18.30
2018-06-15T01:59:20.005Z,18.40
2018-06-15T02:02:17.158Z,18.30
2018-06-15T02:05:15.159Z,18.30
2018-06-15T02:08:13.237Z,18.30
2018-06-15T02:11:10.448Z,18.30
2018-06-15T02:14:08.471Z,18.30
2018-06-15T02:17:05.776Z,18.30
2018-06-15T02:20:03.717Z,18.30
2018-06-15T02:23:01.914Z,18.30
2018-06-15T02:25:59.866Z,18.30
2018-06-15T02:28:57.712Z,18.30
2018-06-15T02:31:55.852Z,18.30
2018-06-15T02:34:53.947Z,18.30
2018-06-15T02:37:51.202Z,18.30
2018-06-15T02:40:49.362Z,18.30
2018-06-15T02:43:46.639Z,18.30
2018-06-15T02:46:43.848Z,18.20
2018-06-15T02:49:42.043Z,18.20
2018-06-15T02:52:40.097Z,18.20
2018-06-15T02:55:37.382Z,18.20
2018-06-15T02:58:34.553Z,18.20
2018-06-15T03:01:32.555Z,18.20
2018-06-15T03:04:29.863Z,18.10
2018-06-15T03:07:27.218Z,18.10
2018-06-15T03:10:24.427Z,18.10
2018-06-15T03:13:21.596Z,18.10
2018-06-15T03:16:18.718Z,18.10
2018-06-15T03:19:17.753Z,18.00
2018-06-15T03:22:15.061Z,18.00
2018-06-15T03:25:13.208Z,18.00
2018-06-15T03:28:11.104Z,18.00
2018-06-15T03:31:08.339Z,18.00
2018-06-15T03:34:06.265Z,18.00
2018-06-15T03:37:04.025Z,17.90
2018-06-15T03:40:03.127Z,17.80
2018-06-15T03:43:01.226Z,17.90
2018-06-15T03:45:58.599Z,17.90
2018-06-15T03:48:56.553Z,17.90
2018-06-15T03:51:54.758Z,17.90
2018-06-15T03:54:52.890Z,17.90
2018-06-15T03:57:50.992Z,17.90
2018-06-15T04:00:48.923Z,17.80
2018-06-15T04:03:46.145Z,17.90
2018-06-15T04:06:45.229Z,17.90
2018-06-15T04:09:43.904Z,17.90
2018-06-15T04:12:41.864Z,17.80
2018-06-15T04:15:40.020Z,17.70
2018-06-15T04:18:38.022Z,17.50
2018-06-15T04:21:37.042Z,17.50
2018-06-15T04:24:36.299Z,17.40
2018-06-15T04:27:35.653Z,17.40
2018-06-15T04:30:33.352Z,17.40
2018-06-15T04:33:32.144Z,17.40
2018-06-15T04:36:31.036Z,17.30
2018-06-15T04:39:29.569Z,17.50
2018-06-15T04:42:26.912Z,17.60
2018-06-15T04:45:25.097Z,17.70
2018-06-15T04:48:22.989Z,17.70
2018-06-15T04:51:20.903Z,17.90
2018-06-15T04:54:19.950Z,18.00
2018-06-15T04:57:17.955Z,18.10
2018-06-15T05:00:15.318Z,18.20
2018-06-15T05:03:12.661Z,17.80
2018-06-15T05:06:10.871Z,17.60
2018-06-15T05:09:09.205Z,17.70
2018-06-15T05:12:06.916Z,17.60
2018-06-15T05:15:06.967Z,17.70
2018-06-15T05:18:04.454Z,17.80
2018-06-15T05:21:03.592Z,18.00
2018-06-15T05:24:02.709Z,18.10
2018-06-15T05:27:00.051Z,18.20
2018-06-15T05:29:57.575Z,18.30
2018-06-15T05:32:56.657Z,18.30
2018-06-15T05:35:54.371Z,18.30
2018-06-15T05:38:52.383Z,18.20
2018-06-15T05:41:50.479Z,18.30
2018-06-15T05:44:47.787Z,18.40
2018-06-15T05:47:45.900Z,18.40
2018-06-15T05:50:44.050Z,18.40
2018-06-15T05:53:42.152Z,18.50
2018-06-15T05:56:39.487Z,18.70
2018-06-15T05:59:38.566Z,18.60
2018-06-15T06:02:36.685Z,18.70
2018-06-15T06:05:34.737Z,18.80
2018-06-15T06:08:31.933Z,19.00
2018-06-15T06:11:30.102Z,19.00
2018-06-15T06:14:28.052Z,19.00
2018-06-15T06:17:26.116Z,18.80
2018-06-15T06:20:24.041Z,19.10
2018-06-15T06:23:22.805Z,19.00
2018-06-15T06:26:20.824Z,18.90
2018-06-15T06:29:19.636Z,18.90
2018-06-15T06:32:18.592Z,18.90
2018-06-15T06:35:16.494Z,19.10
2018-06-15T06:38:13.892Z,19.30
2018-06-15T06:41:11.216Z,19.50
2018-06-15T06:44:09.187Z,19.60
2018-06-15T06:47:07.172Z,19.70
2018-06-15T06:50:06.041Z,19.70
2018-06-15T06:53:05.010Z,19.60
2018-06-15T06:56:02.064Z,19.60
2018-06-15T06:59:00.407Z,19.50
2018-06-15T07:01:57.663Z,20.30
2018-06-15T07:04:56.713Z,22.00
2018-06-15T07:07:54.677Z,23.00
2018-06-15T07:10:51.751Z,23.90
2018-06-15T07:13:49.067Z,24.40
2018-06-15T07:16:46.387Z,25.10
2018-06-15T07:19:44.399Z,25.30
2018-06-15T07:22:42.451Z,25.00
2018-06-15T07:25:40.309Z,24.70
2018-06-15T07:28:38.271Z,25.00
2018-06-15T07:31:36.279Z,24.50
2018-06-15T07:34:34.245Z,24.10
2018-06-15T07:37:32.332Z,24.50
2018-06-15T07:40:31.499Z,24.70
2018-06-15T07:43:30.342Z,24.90
2018-06-15T07:46:27.596Z,25.10
2018-06-15T07:49:25.533Z,25.20
2018-06-15T07:52:22.816Z,25.20
2018-06-15T07:55:21.156Z,25.50
2018-06-15T07:58:19.049Z,25.60
2018-06-15T08:01:16.970Z,26.00
2018-06-15T08:04:16.308Z,25.80
2018-06-15T08:07:14.171Z,26.10
2018-06-15T08:10:12.095Z,26.20
2018-06-15T08:13:10.183Z,25.90
2018-06-15T08:16:08.215Z,26.30
2018-06-15T08:19:06.115Z,26.90
2018-06-15T08:22:03.581Z,27.30
2018-06-15T08:25:02.604Z,27.00
2018-06-15T08:28:01.688Z,27.80
2018-06-15T08:30:59.800Z,27.70
2018-06-15T08:33:57.842Z,27.90
2018-06-15T08:36:55.038Z,27.80
2018-06-15T08:39:52.293Z,28.00
2018-06-15T08:42:51.229Z,27.70
2018-06-15T08:45:49.623Z,26.90
2018-06-15T08:48:47.018Z,26.60
2018-06-15T08:51:44.320Z,26.50
2018-06-15T08:54:43.201Z,27.00
2018-06-15T08:57:41.258Z,26.90
2018-06-15T09:00:38.452Z,26.90
2018-06-15T09:03:36.568Z,26.70
2018-06-15T09:06:33.911Z,27.00
2018-06-15T09:09:31.978Z,27.20
2018-06-15T09:12:31.141Z,27.30
2018-06-15T09:15:29.124Z,27.40
2018-06-15T09:18:26.308Z,27.00
2018-06-15T09:21:23.538Z,27.40
2018-06-15T09:24:20.823Z,27.10
2018-06-15T09:27:18.125Z,27.60
2018-06-15T09:30:16.134Z,28.20
2018-06-15T09:33:16.361Z,28.20
2018-06-15T09:36:14.504Z,28.30
2018-06-15T09:39:11.688Z,27.90
2018-06-15T09:42:10.683Z,27.60
2018-06-15T09:45:08.706Z,27.90
2018-06-15T09:48:07.689Z,27.90
2018-06-15T09:51:05.571Z,27.80
2018-06-15T09:54:03.725Z,28.00
2018-06-15T09:57:01.871Z,27.90
2018-06-15T09:59:59.749Z,28.50
2018-06-15T10:02:57.667Z,27.50
2018-06-15T10:05:56.334Z,27.90
2018-06-15T10:08:53.636Z,28.30
2018-06-15T10:11:52.694Z,27.80
2018-06-15T10:14:50.042Z,28.50
2018-06-15T10:17:48.146Z,29.00
2018-06-15T10:20:45.820Z,29.40
2018-06-15T10:23:45.877Z,29.20
2018-06-15T10:26:43.842Z,29.00
2018-06-15T10:29:41.898Z,29.60
2018-06-15T10:32:39.106Z,30.20
2018-06-15T10:35:37.133Z,29.20
2018-06-15T10:38:35.817Z,28.30
2018-06-15T10:41:35.283Z,28.90
2018-06-15T10:44:33.327Z,29.10
2018-06-15T10:47:30.635Z,28.30
2018-06-15T10:50:28.851Z,28.20
2018-06-15T10:53:26.957Z,28.50
2018-06-15T10:56:25.959Z,28.50
2018-06-15T10:59:23.191Z,28.20
2018-06-15T11:02:21.205Z,28.60
2018-06-15T11:05:19.169Z,28.90
2018-06-15T11:08:16.356Z,29.10
2018-06-15T11:11:13.591Z,29.60
2018-06-15T11:14:11.285Z,29.20
2018-06-15T11:17:09.299Z,28.30
2018-06-15T11:20:07.332Z,28.50
2018-06-15T11:23:04.487Z,28.50
2018-06-15T11:26:02.657Z,28.00
2018-06-15T11:29:00.930Z,27.40
2018-06-15T11:31:58.721Z,27.40
2018-06-15T11:34:55.922Z,28.20
2018-06-15T11:37:53.968Z,27.70
2018-06-15T11:40:52.797Z,27.80
2018-06-15T11:43:50.706Z,28.30
2018-06-15T11:46:48.623Z,28.00
2018-06-15T11:49:46.686Z,28.10
2018-06-15T11:52:44.443Z,28.40
2018-06-15T11:55:43.532Z,28.10
2018-06-15T11:58:41.386Z,28.00
2018-06-15T12:01:39.487Z,27.00
2018-06-15T12:04:39.184Z,26.60
2018-06-15T12:07:38.501Z,26.80
2018-06-15T12:10:36.285Z,27.40
2018-06-15T12:13:34.472Z,27.50
2018-06-15T12:16:32.357Z,27.10
2018-06-15T12:19:31.330Z,27.50
2018-06-15T12:22:30.368Z,28.00
2018-06-15T12:25:28.889Z,27.60
2018-06-15T12:28:26.173Z,27.60
2018-06-15T12:31:24.290Z,27.80
2018-06-15T12:34:21.722Z,27.50
2018-06-15T12:37:19.849Z,27.70
2018-06-15T12:40:17.227Z,28.10
2018-06-15T12:43:15.199Z,28.30
2018-06-15T12:46:13.576Z,28.20
2018-06-15T12:49:10.850Z,28.50
2018-06-15T12:52:09.030Z,29.20
2018-06-15T12:55:06.437Z,28.70
2018-06-15T12:58:04.475Z,28.10
2018-06-15T13:01:01.789Z,28.20
2018-06-15T13:03:59.703Z,28.60
2018-06-15T13:06:57.744Z,28.50
2018-06-15T13:09:55.732Z,28.00
2018-06-15T13:12:53.973Z,27.70
2018-06-15T13:15:51.990Z,27.40
2018-06-15T13:18:52.087Z,27.40
2018-06-15T13:21:50.274Z,27.80
2018-06-15T13:24:47.932Z,28.10
2018-06-15T13:27:46.971Z,27.90
2018-06-15T13:30:47.323Z,27.20
2018-06-15T13:33:45.457Z,27.90
2018-06-15T13:36:43.005Z,27.70
2018-06-15T13:39:41.887Z,28.00
2018-06-15T13:42:39.137Z,27.50
2018-06-15T13:45:36.344Z,27.20
2018-06-15T13:48:34.297Z,27.20
2018-06-15T13:51:32.076Z,27.20
2018-06-15T13:54:30.899Z,27.20
2018-06-15T13:57:29.815Z,26.60
2018-06-15T14:00:27.965Z,26.90
2018-06-15T14:03:26.130Z,27.30
2018-06-15T14:06:24.111Z,27.70
2018-06-15T14:09:21.267Z,27.40
2018-06-15T14:12:20.341Z,27.40
2018-06-15T14:15:18.456Z,27.10
2018-06-15T14:18:16.494Z,26.60
2018-06-15T14:21:14.317Z,26.40
2018-06-15T14:24:13.381Z,26.80
2018-06-15T14:27:12.438Z,26.70
2018-06-15T14:30:10.345Z,26.50
2018-06-15T14:33:10.444Z,25.90
2018-06-15T14:36:07.929Z,25.50
2018-06-15T14:39:05.941Z,25.70
2018-06-15T14:42:04.100Z,26.20
2018-06-15T14:45:01.845Z,26.20
2018-06-15T14:47:59.816Z,25.50
2018-06-15T14:50:57.787Z,25.30
2018-06-15T14:53:55.942Z,25.70
2018-06-15T14:56:54.117Z,25.50
2018-06-15T14:59:51.809Z,25.50
2018-06-15T15:02:49.972Z,25.80
2018-06-15T15:05:48.145Z,25.60
2018-06-15T15:08:47.097Z,25.40
2018-06-15T15:11:46.201Z,25.60
2018-06-15T15:14:43.882Z,25.30
2018-06-15T15:17:41.996Z,25.40
2018-06-15T15:20:41.016Z,25.80
2018-06-15T15:23:40.174Z,25.80
2018-06-15T15:26:38.017Z,25.80
2018-06-15T15:29:36.069Z,25.80
2018-06-15T15:32:33.331Z,26.10
2018-06-15T15:35:31.314Z,25.70
2018-06-15T15:38:34.292Z,25.30
2018-06-15T15:41:32.328Z,25.20
2018-06-15T15:44:30.565Z,25.10
2018-06-15T15:47:29.264Z,25.00
2018-06-15T15:50:26.745Z,25.00
2018-06-15T15:53:23.987Z,25.00
2018-06-15T15:56:22.025Z,24.90
2018-06-15T15:59:20.301Z,24.80
2018-06-15T16:02:18.202Z,24.70
2018-06-15T16:05:16.052Z,24.70
2018-06-15T16:08:13.252Z,24.90
2018-06-15T16:11:11.529Z,24.90
2018-06-15T16:14:10.443Z,24.70
2018-06-15T16:17:09.209Z,24.60
2018-06-15T16:20:08.217Z,24.70
2018-06-15T16:23:07.322Z,24.90
2018-06-15T16:26:07.361Z,24.90
2018-06-15T16:29:05.280Z,24.80
2018-06-15T16:32:02.451Z,24.60
2018-06-15T16:34:59.672Z,24.60
2018-06-15T16:37:57.784Z,24.60
2018-06-15T16:40:56.544Z,24.90
2018-06-15T16:43:55.469Z,24.70
2018-06-15T16:46:54.287Z,24.50
2018-06-15T16:49:51.698Z,24.30
2018-06-15T16:52:49.568Z,23.90
2018-06-15T16:55:47.878Z,23.80
2018-06-15T16:58:46.031Z,23.40
2018-06-15T17:01:43.989Z,23.40
2018-06-15T17:04:42.004Z,23.30
2018-06-15T17:07:40.155Z,23.10
2018-06-15T17:10:38.266Z,23.20
2018-06-15T17:13:36.341Z,23.40
2018-06-15T17:16:34.120Z,23.20
2018-06-15T17:19:32.368Z,23.10
2018-06-15T17:22:31.390Z,23.20
2018-06-15T17:25:30.534Z,23.20
2018-06-15T17:28:28.515Z,23.10
2018-06-15T17:31:25.815Z,23.00
2018-06-15T17:34:23.102Z,22.90
2018-06-15T17:37:21.049Z,22.70
2018-06-15T17:40:20.947Z,22.70
2018-06-15T17:43:19.052Z,22.60
2018-06-15T17:46:16.228Z,22.70
2018-06-15T17:49:14.429Z,22.80
2018-06-15T17:52:11.953Z,22.70
2018-06-15T17:55:10.738Z,22.70
2018-06-15T17:58:08.841Z,22.60
2018-06-15T18:01:06.778Z,22.60
2018-06-15T18:04:05.400Z,22.60
2018-06-15T18:07:02.687Z,22.60
2018-06-15T18:09:59.909Z,22.60
2018-06-15T18:12:58.396Z,22.50
2018-06-15T18:15:57.031Z,22.50
2018-06-15T18:18:55.388Z,22.50
2018-06-15T18:21:54.462Z,22.50
2018-06-15T18:24:52.661Z,22.40
2018-06-15T18:27:50.771Z,22.50
2018-06-15T18:30:48.505Z,22.50
2018-06-15T18:33:46.258Z,22.40
2018-06-15T18:36:44.920Z,22.20
2018-06-15T18:39:42.327Z,22.00
2018-06-15T18:42:40.404Z,21.90
2018-06-15T18:45:37.667Z,21.80
2018-06-15T18:48:34.903Z,21.80
2018-06-15T18:51:33.009Z,21.70
2018-06-15T18:54:31.054Z,21.70
2018-06-15T18:57:29.978Z,21.80
2018-06-15T19:00:28.036Z,21.70
2018-06-15T19:03:26.153Z,21.70
2018-06-15T19:06:24.080Z,21.60
2018-06-15T19:09:25.504Z,21.40
2018-06-15T19:12:22.656Z,21.20
2018-06-15T19:15:20.567Z,21.10
2018-06-15T19:18:18.632Z,21.10
2018-06-15T19:21:16.720Z,21.00
2018-06-15T19:24:14.808Z,21.00
2018-06-15T19:27:12.138Z,20.90
2018-06-15T19:30:10.353Z,20.90
2018-06-15T19:33:08.453Z,20.90
2018-06-15T19:36:05.536Z,20.80
2018-06-15T19:39:03.536Z,20.50
2018-06-15T19:42:00.896Z,20.30
2018-06-15T19:44:58.863Z,20.30
2018-06-15T19:47:56.784Z,20.10
2018-06-15T19:50:54.720Z,20.00
2018-06-15T19:53:52.511Z,19.90
2018-06-15T19:56:52.884Z,19.80
2018-06-15T19:59:51.102Z,19.80
2018-06-15T20:02:49.334Z,19.70
2018-06-15T20:05:47.355Z,19.60
2018-06-15T20:08:44.885Z,19.70
2018-06-15T20:11:42.117Z,19.70
2018-06-15T20:14:39.266Z,19.50
2018-06-15T20:17:37.193Z,19.50
2018-06-15T20:20:36.289Z,19.50
2018-06-15T20:23:33.527Z,19.50
2018-06-15T20:26:31.782Z,19.50
2018-06-15T20:29:29.596Z,19.30
2018-06-15T20:32:26.892Z,19.40
2018-06-15T20:35:24.896Z,19.40
2018-06-15T20:38:23.122Z,19.30
2018-06-15T20:41:20.311Z,19.20
2018-06-15T20:44:17.650Z,19.30
2018-06-15T20:50:14.811Z,19.20
2018-06-15T20:53:12.120Z,19.10
2018-06-15T20:56:10.130Z,19.10
2018-06-15T20:59:08.197Z,19.00
2018-06-15T21:02:07.079Z,18.90
2018-06-15T21:05:05.196Z,18.90
2018-06-15T21:08:03.160Z,18.80
2018-06-15T21:11:00.695Z,18.70
2018-06-15T21:13:58.579Z,18.70
2018-06-15T21:16:57.649Z,18.60
2018-06-15T21:19:55.020Z,18.50
2018-06-15T21:22:52.309Z,18.50
2018-06-15T21:45:10.800Z,18.40
2018-06-15T21:48:08.342Z,18.30
2018-06-15T21:51:05.455Z,18.10
2018-06-15T21:54:03.363Z,18.00
2018-06-15T21:57:01.123Z,18.10
2018-06-15T21:59:59.190Z,18.00
2018-06-15T22:02:57.135Z,18.10
2018-06-15T22:05:55.228Z,18.10
2018-06-15T22:08:52.647Z,17.90
2018-06-15T22:11:50.631Z,17.90
2018-06-15T22:14:48.421Z,17.90
2018-06-15T22:17:46.334Z,17.80
2018-06-15T22:20:44.253Z,17.80
2018-06-15T22:23:42.295Z,17.80
2018-06-15T22:26:40.384Z,17.80
2018-06-15T22:29:38.408Z,17.80
2018-06-15T22:32:35.689Z,17.70
2018-06-15T22:35:33.783Z,17.70
2018-06-15T22:38:31.623Z,17.70
2018-06-15T22:41:29.763Z,17.60
2018-06-15T22:44:27.699Z,17.60
2018-06-15T22:47:24.859Z,17.60
2018-06-15T22:50:22.751Z,17.50
2018-06-15T22:53:20.736Z,17.50
2018-06-15T22:56:18.737Z,17.50
2018-06-15T22:59:16.889Z,17.50
2018-06-15T23:02:14.966Z,17.50
2018-06-15T23:05:12.744Z,17.50
2018-06-15T23:08:10.677Z,17.50
2018-06-15T23:11:08.538Z,17.50
2018-06-15T23:14:06.666Z,17.50
2018-06-15T23:17:03.977Z,17.50
2018-06-15T23:20:01.770Z,17.50
2018-06-15T23:22:59.851Z,17.50
2018-06-15T23:25:58.180Z,17.50
2018-06-15T23:28:56.370Z,17.50
2018-06-15T23:31:55.289Z,17.40
2018-06-15T23:34:52.588Z,17.50
2018-06-15T23:37:50.724Z,17.40
2018-06-15T23:40:47.956Z,17.40
2018-06-15T23:43:45.140Z,17.40
2018-06-15T23:46:43.073Z,17.40
2018-06-15T23:49:40.539Z,17.40
2018-06-15T23:52:39.266Z,17.30
2018-06-15T23:55:36.609Z,17.20
2018-06-15T23:58:34.657Z,17.10
